sensor_id;sensor_type;location;lat;lon;timestamp;pressure;altitude;pressure_sealevel;temperature;humidity
11605;BME280;5858;43.076;25.626;2023-02-01T00:02:04;99356.31;;;2.64;93.46
11605;BME280;5858;43.076;25.626;2023-02-01T00:04:34;99299.94;;;2.44;93.44
11605;BME280;5858;43.076;25.626;2023-02-01T00:07:01;99144.25;;;1.42;93.04
11605;BME280;5858;43.076;25.626;2023-02-01T00:09:33;99276.78;;;2.27;93.57
11605;BME280;5858;43.076;25.626;2023-02-01T00:12:04;99311.91;;;2.48;93.22
11605;BME280;5858;43.076;25.626;2023-02-01T00:14:31;99238.97;;;1.96;93.44
11605;BME280;5858;43.076;25.626;2023-02-01T00:17:04;99256.97;;;2.12;93.55
11605;BME280;5858;43.076;25.626;2023-02-01T00:19:32;99343.53;;;2.69;93.35
11605;BME280;5858;43.076;25.626;2023-02-01T00:22:00;99268.41;;;2.22;92.63
11605;BME280;5858;43.076;25.626;2023-02-01T00:24:27;99227.63;;;2.05;92.48
11605;BME280;5858;43.076;25.626;2023-02-01T00:26:55;99241.66;;;2.06;92.92
11605;BME280;5858;43.076;25.626;2023-02-01T00:29:23;99337.53;;;2.58;92.36
11605;BME280;5858;43.076;25.626;2023-02-01T00:31:50;99350.66;;;2.78;92.57
11605;BME280;5858;43.076;25.626;2023-02-01T00:34:18;99241.53;;;2.07;92.68
11605;BME280;5858;43.076;25.626;2023-02-01T00:36:46;99294.97;;;2.51;92.83
11605;BME280;5858;43.076;25.626;2023-02-01T00:39:14;99276.03;;;2.46;92.57
11605;BME280;5858;43.076;25.626;2023-02-01T00:41:41;99341.75;;;2.70;92.55
11605;BME280;5858;43.076;25.626;2023-02-01T00:44:10;99345.38;;;2.78;92.77
11605;BME280;5858;43.076;25.626;2023-02-01T00:46:39;99333.00;;;2.79;92.33
11605;BME280;5858;43.076;25.626;2023-02-01T00:49:22;99337.47;;;2.78;92.19
11605;BME280;5858;43.076;25.626;2023-02-01T00:51:49;99208.28;;;1.95;92.09
11605;BME280;5858;43.076;25.626;2023-02-01T00:54:16;99330.88;;;2.63;91.90
11605;BME280;5858;43.076;25.626;2023-02-01T00:56:43;99277.16;;;2.43;91.94
11605;BME280;5858;43.076;25.626;2023-02-01T00:59:12;99298.44;;;2.51;92.18
11605;BME280;5858;43.076;25.626;2023-02-01T01:01:41;99304.84;;;2.59;91.26
11605;BME280;5858;43.076;25.626;2023-02-01T01:04:08;99305.09;;;2.46;92.15
11605;BME280;5858;43.076;25.626;2023-02-01T01:06:35;99328.97;;;2.75;92.33
11605;BME280;5858;43.076;25.626;2023-02-01T01:09:04;99299.53;;;2.49;92.14
11605;BME280;5858;43.076;25.626;2023-02-01T01:11:34;99288.72;;;2.31;92.80
11605;BME280;5858;43.076;25.626;2023-02-01T01:14:02;99321.88;;;2.75;92.40
11605;BME280;5858;43.076;25.626;2023-02-01T01:16:32;99271.56;;;2.37;92.27
11605;BME280;5858;43.076;25.626;2023-02-01T01:18:59;99324.66;;;2.74;92.40
11605;BME280;5858;43.076;25.626;2023-02-01T01:21:27;99335.91;;;2.76;92.82
11605;BME280;5858;43.076;25.626;2023-02-01T01:23:54;99325.63;;;2.73;93.23
11605;BME280;5858;43.076;25.626;2023-02-01T01:26:22;99320.34;;;2.73;92.88
11605;BME280;5858;43.076;25.626;2023-02-01T01:28:50;99286.59;;;2.46;93.42
11605;BME280;5858;43.076;25.626;2023-02-01T01:31:18;99330.91;;;2.73;93.87
11605;BME280;5858;43.076;25.626;2023-02-01T01:33:49;99315.19;;;2.71;94.54
11605;BME280;5858;43.076;25.626;2023-02-01T01:36:18;99317.81;;;2.71;94.39
11605;BME280;5858;43.076;25.626;2023-02-01T01:38:45;99304.72;;;2.60;93.78
11605;BME280;5858;43.076;25.626;2023-02-01T01:41:14;99283.97;;;2.46;94.37
11605;BME280;5858;43.076;25.626;2023-02-01T01:43:54;99268.81;;;2.17;94.54
11605;BME280;5858;43.076;25.626;2023-02-01T01:46:22;99320.44;;;2.62;94.29
11605;BME280;5858;43.076;25.626;2023-02-01T01:48:55;99323.66;;;2.65;94.79
11605;BME280;5858;43.076;25.626;2023-02-01T01:51:24;99325.28;;;2.57;94.02
11605;BME280;5858;43.076;25.626;2023-02-01T01:53:57;99276.91;;;2.26;94.11
11605;BME280;5858;43.076;25.626;2023-02-01T01:56:27;99332.94;;;2.60;94.05
11605;BME280;5858;43.076;25.626;2023-02-01T01:58:56;99359.22;;;2.61;93.69
11605;BME280;5858;43.076;25.626;2023-02-01T02:01:25;99296.78;;;2.30;93.82
11605;BME280;5858;43.076;25.626;2023-02-01T02:03:55;99351.28;;;2.61;93.72
11605;BME280;5858;43.076;25.626;2023-02-01T02:06:29;99342.97;;;2.66;93.76
11605;BME280;5858;43.076;25.626;2023-02-01T02:08:59;99345.75;;;2.64;93.48
11605;BME280;5858;43.076;25.626;2023-02-01T02:11:26;99320.63;;;2.39;93.35
11605;BME280;5858;43.076;25.626;2023-02-01T02:13:55;99233.00;;;1.94;93.37
11605;BME280;5858;43.076;25.626;2023-02-01T02:16:47;99323.47;;;2.57;92.35
11605;BME280;5858;43.076;25.626;2023-02-01T02:19:36;99309.94;;;2.41;92.38
11605;BME280;5858;43.076;25.626;2023-02-01T02:22:30;99341.69;;;2.60;92.47
11605;BME280;5858;43.076;25.626;2023-02-01T02:25:21;99328.97;;;2.44;92.39
11605;BME280;5858;43.076;25.626;2023-02-01T02:27:56;99304.13;;;2.26;92.57
11605;BME280;5858;43.076;25.626;2023-02-01T02:33:43;99315.13;;;2.31;91.96
11605;BME280;5858;43.076;25.626;2023-02-01T02:36:19;99321.06;;;2.24;92.16
11605;BME280;5858;43.076;25.626;2023-02-01T02:38:53;99355.53;;;2.43;92.40
11605;BME280;5858;43.076;25.626;2023-02-01T02:41:30;99321.06;;;2.24;92.48
11605;BME280;5858;43.076;25.626;2023-02-01T02:44:21;99246.97;;;1.64;91.74
11605;BME280;5858;43.076;25.626;2023-02-01T02:47:13;99353.50;;;2.35;92.00
11605;BME280;5858;43.076;25.626;2023-02-01T02:49:58;99313.38;;;2.11;92.04
11605;BME280;5858;43.076;25.626;2023-02-01T02:52:46;99356.75;;;2.39;92.18
11605;BME280;5858;43.076;25.626;2023-02-01T02:55:36;99340.50;;;2.22;91.73
11605;BME280;5858;43.076;25.626;2023-02-01T02:58:06;99359.53;;;2.37;91.88
11605;BME280;5858;43.076;25.626;2023-02-01T03:00:51;99362.41;;;2.34;92.19
11605;BME280;5858;43.076;25.626;2023-02-01T03:03:38;99351.91;;;2.44;91.32
11605;BME280;5858;43.076;25.626;2023-02-01T03:06:24;99330.09;;;2.21;90.89
11605;BME280;5858;43.076;25.626;2023-02-01T03:08:55;99370.84;;;2.49;90.51
11605;BME280;5858;43.076;25.626;2023-02-01T03:11:24;99292.19;;;2.01;89.71
11605;BME280;5858;43.076;25.626;2023-02-01T03:14:14;99335.56;;;2.29;88.78
11605;BME280;5858;43.076;25.626;2023-02-01T03:16:46;99347.78;;;2.30;89.42
11605;BME280;5858;43.076;25.626;2023-02-01T03:19:19;99364.28;;;2.43;89.20
11605;BME280;5858;43.076;25.626;2023-02-01T03:21:51;99314.91;;;2.13;89.13
11605;BME280;5858;43.076;25.626;2023-02-01T03:24:22;99317.41;;;2.15;89.10
11605;BME280;5858;43.076;25.626;2023-02-01T03:27:02;99321.97;;;2.13;89.09
11605;BME280;5858;43.076;25.626;2023-02-01T03:29:37;99328.81;;;2.15;89.03
11605;BME280;5858;43.076;25.626;2023-02-01T03:32:05;99340.50;;;2.22;89.03
11605;BME280;5858;43.076;25.626;2023-02-01T03:34:32;99370.13;;;2.47;89.14
11605;BME280;5858;43.076;25.626;2023-02-01T03:37:03;99370.41;;;2.44;89.13
11605;BME280;5858;43.076;25.626;2023-02-01T03:39:35;99372.91;;;2.45;89.01
11605;BME280;5858;43.076;25.626;2023-02-01T03:42:05;99334.91;;;2.16;88.57
11605;BME280;5858;43.076;25.626;2023-02-01T03:44:39;99354.25;;;2.37;88.30
11605;BME280;5858;43.076;25.626;2023-02-01T03:47:11;99391.56;;;2.53;87.80
11605;BME280;5858;43.076;25.626;2023-02-01T03:49:44;99366.78;;;2.45;87.93
11605;BME280;5858;43.076;25.626;2023-02-01T03:52:16;99379.91;;;2.35;88.05
11605;BME280;5858;43.076;25.626;2023-02-01T03:54:45;99326.88;;;2.17;87.72
11605;BME280;5858;43.076;25.626;2023-02-01T03:57:21;99382.91;;;2.42;87.69
11605;BME280;5858;43.076;25.626;2023-02-01T03:59:50;99304.47;;;2.12;87.55
11605;BME280;5858;43.076;25.626;2023-02-01T04:02:17;99388.81;;;2.55;87.66
11605;BME280;5858;43.076;25.626;2023-02-01T04:04:45;99315.13;;;2.01;86.99
11605;BME280;5858;43.076;25.626;2023-02-01T04:07:13;99391.00;;;2.50;87.70
11605;BME280;5858;43.076;25.626;2023-02-01T04:09:42;99301.59;;;1.94;87.66
11605;BME280;5858;43.076;25.626;2023-02-01T04:12:09;99343.47;;;2.29;86.69
11605;BME280;5858;43.076;25.626;2023-02-01T04:14:36;99314.06;;;2.13;86.84
11605;BME280;5858;43.076;25.626;2023-02-01T04:17:03;99353.50;;;2.35;86.85
11605;BME280;5858;43.076;25.626;2023-02-01T04:19:30;99391.72;;;2.52;86.75
11605;BME280;5858;43.076;25.626;2023-02-01T04:21:57;99369.44;;;2.24;87.10
11605;BME280;5858;43.076;25.626;2023-02-01T04:24:26;99405.16;;;2.49;86.04
11605;BME280;5858;43.076;25.626;2023-02-01T04:26:53;99369.88;;;2.29;86.15
11605;BME280;5858;43.076;25.626;2023-02-01T04:29:20;99369.34;;;2.35;85.69
11605;BME280;5858;43.076;25.626;2023-02-01T04:31:47;99391.53;;;2.44;86.34
11605;BME280;5858;43.076;25.626;2023-02-01T04:34:15;99367.94;;;2.31;86.26
11605;BME280;5858;43.076;25.626;2023-02-01T04:36:42;99332.53;;;2.13;87.09
11605;BME280;5858;43.076;25.626;2023-02-01T04:39:09;99317.72;;;1.80;86.10
11605;BME280;5858;43.076;25.626;2023-02-01T04:41:40;99382.19;;;2.40;86.49
11605;BME280;5858;43.076;25.626;2023-02-01T04:44:10;99389.50;;;2.36;86.75
11605;BME280;5858;43.076;25.626;2023-02-01T04:46:40;99383.38;;;2.36;86.49
11605;BME280;5858;43.076;25.626;2023-02-01T04:49:08;99325.94;;;1.98;86.27
11605;BME280;5858;43.076;25.626;2023-02-01T04:51:35;99352.56;;;2.15;86.33
11605;BME280;5858;43.076;25.626;2023-02-01T04:54:02;99400.44;;;2.32;85.92
11605;BME280;5858;43.076;25.626;2023-02-01T04:56:29;99286.13;;;1.69;86.11
11605;BME280;5858;43.076;25.626;2023-02-01T04:58:58;99372.13;;;2.13;86.66
11605;BME280;5858;43.076;25.626;2023-02-01T05:01:25;99363.69;;;1.98;86.74
11605;BME280;5858;43.076;25.626;2023-02-01T05:03:52;99365.50;;;1.98;87.11
11605;BME280;5858;43.076;25.626;2023-02-01T05:06:20;99406.19;;;2.16;87.20
11605;BME280;5858;43.076;25.626;2023-02-01T05:08:47;99393.94;;;2.15;87.09
11605;BME280;5858;43.076;25.626;2023-02-01T05:11:14;99404.38;;;2.16;86.92
11605;BME280;5858;43.076;25.626;2023-02-01T05:13:55;99367.59;;;1.83;87.00
11605;BME280;5858;43.076;25.626;2023-02-01T05:16:24;99404.06;;;2.10;86.82
11605;BME280;5858;43.076;25.626;2023-02-01T05:18:51;99377.75;;;1.87;87.19
11605;BME280;5858;43.076;25.626;2023-02-01T05:21:18;99353.03;;;1.68;87.56
11605;BME280;5858;43.076;25.626;2023-02-01T05:23:45;99369.75;;;1.78;87.74
11605;BME280;5858;43.076;25.626;2023-02-01T05:26:29;99400.50;;;2.00;87.50
11605;BME280;5858;43.076;25.626;2023-02-01T05:28:57;99368.69;;;1.80;87.73
11605;BME280;5858;43.076;25.626;2023-02-01T05:31:25;99407.91;;;2.06;87.46
11605;BME280;5858;43.076;25.626;2023-02-01T05:33:52;99387.72;;;1.84;88.14
11605;BME280;5858;43.076;25.626;2023-02-01T05:36:20;99408.19;;;2.03;88.79
11605;BME280;5858;43.076;25.626;2023-02-01T05:38:47;99409.13;;;2.02;88.84
11605;BME280;5858;43.076;25.626;2023-02-01T05:41:14;99418.41;;;1.96;89.21
11605;BME280;5858;43.076;25.626;2023-02-01T05:43:41;99385.97;;;1.73;89.81
11605;BME280;5858;43.076;25.626;2023-02-01T05:46:13;99403.44;;;1.85;89.55
11605;BME280;5858;43.076;25.626;2023-02-01T05:48:42;99418.16;;;1.88;89.92
11605;BME280;5858;43.076;25.626;2023-02-01T05:51:10;99364.00;;;1.52;89.72
11605;BME280;5858;43.076;25.626;2023-02-01T05:53:38;99409.75;;;1.62;89.73
11605;BME280;5858;43.076;25.626;2023-02-01T05:56:05;99420.81;;;1.88;89.59
11605;BME280;5858;43.076;25.626;2023-02-01T05:58:33;99431.34;;;1.88;89.93
11605;BME280;5858;43.076;25.626;2023-02-01T06:01:02;99377.56;;;1.47;89.68
11605;BME280;5858;43.076;25.626;2023-02-01T06:03:29;99422.03;;;1.84;89.93
11605;BME280;5858;43.076;25.626;2023-02-01T06:05:58;99426.25;;;1.75;90.59
11605;BME280;5858;43.076;25.626;2023-02-01T06:08:27;99430.22;;;1.70;90.29
11605;BME280;5858;43.076;25.626;2023-02-01T06:10:58;99418.50;;;1.63;89.83
11605;BME280;5858;43.076;25.626;2023-02-01T06:13:25;99350.53;;;1.23;89.65
11605;BME280;5858;43.076;25.626;2023-02-01T06:15:52;99429.97;;;1.73;89.43
11605;BME280;5858;43.076;25.626;2023-02-01T06:18:21;99425.75;;;1.81;88.64
11605;BME280;5858;43.076;25.626;2023-02-01T06:20:52;99467.97;;;1.70;87.92
11605;BME280;5858;43.076;25.626;2023-02-01T06:23:21;99398.03;;;1.55;88.19
11605;BME280;5858;43.076;25.626;2023-02-01T06:25:50;99391.00;;;1.44;88.25
11605;BME280;5858;43.076;25.626;2023-02-01T06:28:17;99392.16;;;1.51;88.47
11605;BME280;5858;43.076;25.626;2023-02-01T06:30:44;99447.69;;;1.93;88.36
11605;BME280;5858;43.076;25.626;2023-02-01T06:33:12;99396.22;;;1.55;87.88
11605;BME280;5858;43.076;25.626;2023-02-01T06:35:41;99384.81;;;1.66;87.47
11605;BME280;5858;43.076;25.626;2023-02-01T06:38:10;99451.75;;;1.97;87.25
11605;BME280;5858;43.076;25.626;2023-02-01T06:40:39;99449.81;;;1.99;87.34
11605;BME280;5858;43.076;25.626;2023-02-01T06:43:07;99440.34;;;1.97;87.32
11605;BME280;5858;43.076;25.626;2023-02-01T06:45:34;99391.00;;;1.76;87.26
11605;BME280;5858;43.076;25.626;2023-02-01T06:48:02;99365.69;;;1.53;87.46
11605;BME280;5858;43.076;25.626;2023-02-01T06:50:30;99435.84;;;2.08;87.62
11605;BME280;5858;43.076;25.626;2023-02-01T06:52:57;99444.72;;;2.07;87.46
11605;BME280;5858;43.076;25.626;2023-02-01T06:55:25;99410.25;;;1.88;87.32
11605;BME280;5858;43.076;25.626;2023-02-01T06:57:56;99438.75;;;2.26;87.89
11605;BME280;5858;43.076;25.626;2023-02-01T07:00:23;99375.00;;;1.89;87.06
11605;BME280;5858;43.076;25.626;2023-02-01T07:02:50;99439.19;;;2.42;86.90
11605;BME280;5858;43.076;25.626;2023-02-01T07:05:17;99448.00;;;2.52;86.94
11605;BME280;5858;43.076;25.626;2023-02-01T07:07:45;99442.00;;;2.71;86.02
11605;BME280;5858;43.076;25.626;2023-02-01T07:10:12;99434.06;;;2.71;85.77
11605;BME280;5858;43.076;25.626;2023-02-01T07:12:39;99442.25;;;2.89;85.71
11605;BME280;5858;43.076;25.626;2023-02-01T07:15:08;99454.09;;;2.95;85.67
11605;BME280;5858;43.076;25.626;2023-02-01T07:17:36;99372.38;;;2.51;85.46
11605;BME280;5858;43.076;25.626;2023-02-01T07:20:03;99452.91;;;3.08;85.30
11605;BME280;5858;43.076;25.626;2023-02-01T07:22:31;99396.94;;;2.73;84.77
11605;BME280;5858;43.076;25.626;2023-02-01T07:24:58;99454.66;;;3.29;84.90
11605;BME280;5858;43.076;25.626;2023-02-01T07:27:29;99462.06;;;3.35;84.42
11605;BME280;5858;43.076;25.626;2023-02-01T07:29:57;99469.47;;;3.41;84.05
11605;BME280;5858;43.076;25.626;2023-02-01T07:32:29;99396.25;;;3.01;83.86
11605;BME280;5858;43.076;25.626;2023-02-01T07:34:57;99482.44;;;3.54;83.46
11605;BME280;5858;43.076;25.626;2023-02-01T07:37:24;99381.38;;;3.00;82.38
11605;BME280;5858;43.076;25.626;2023-02-01T07:39:54;99365.94;;;3.05;82.09
11605;BME280;5858;43.076;25.626;2023-02-01T07:42:21;99436.94;;;3.60;82.35
11605;BME280;5858;43.076;25.626;2023-02-01T07:44:48;99446.69;;;3.69;81.41
11605;BME280;5858;43.076;25.626;2023-02-01T07:47:15;99467.09;;;3.88;81.78
11605;BME280;5858;43.076;25.626;2023-02-01T07:49:44;99408.63;;;3.41;80.75
11605;BME280;5858;43.076;25.626;2023-02-01T07:52:12;99307.22;;;3.02;80.53
11605;BME280;5858;43.076;25.626;2023-02-01T07:54:42;99462.91;;;4.04;81.07
11605;BME280;5858;43.076;25.626;2023-02-01T07:57:10;99423.03;;;3.67;80.21
11605;BME280;5858;43.076;25.626;2023-02-01T07:59:38;99304.03;;;3.08;80.79
11605;BME280;5858;43.076;25.626;2023-02-01T08:02:28;99464.44;;;4.17;80.52
11605;BME280;5858;43.076;25.626;2023-02-01T08:04:56;99463.06;;;4.13;80.12
11605;BME280;5858;43.076;25.626;2023-02-01T08:07:23;99443.00;;;3.91;80.94
11605;BME280;5858;43.076;25.626;2023-02-01T08:09:50;99477.28;;;4.11;80.87
11605;BME280;5858;43.076;25.626;2023-02-01T08:12:18;99444.66;;;4.01;80.81
11605;BME280;5858;43.076;25.626;2023-02-01T08:14:45;99380.53;;;3.59;79.98
11605;BME280;5858;43.076;25.626;2023-02-01T08:17:12;99447.31;;;4.11;80.15
11605;BME280;5858;43.076;25.626;2023-02-01T08:19:40;99337.38;;;3.59;80.48
11605;BME280;5858;43.076;25.626;2023-02-01T08:22:09;99282.78;;;3.19;79.94
11605;BME280;5858;43.076;25.626;2023-02-01T08:24:36;99432.81;;;4.34;78.93
11605;BME280;5858;43.076;25.626;2023-02-01T08:27:06;99392.00;;;4.08;78.75
11605;BME280;5858;43.076;25.626;2023-02-01T08:29:33;99469.44;;;4.68;78.56
11605;BME280;5858;43.076;25.626;2023-02-01T08:32:00;99407.31;;;4.33;78.21
11605;BME280;5858;43.076;25.626;2023-02-01T08:34:28;99491.63;;;4.67;78.23
11605;BME280;5858;43.076;25.626;2023-02-01T08:36:55;99504.19;;;4.84;77.64
11605;BME280;5858;43.076;25.626;2023-02-01T08:41:57;99482.63;;;5.06;76.52
11605;BME280;5858;43.076;25.626;2023-02-01T08:44:42;99337.63;;;4.33;77.07
11605;BME280;5858;43.076;25.626;2023-02-01T08:47:09;99484.25;;;5.27;76.51
11605;BME280;5858;43.076;25.626;2023-02-01T08:49:36;99334.78;;;4.44;76.14
11605;BME280;5858;43.076;25.626;2023-02-01T08:52:08;99484.13;;;5.19;76.28
11605;BME280;5858;43.076;25.626;2023-02-01T08:54:37;99465.00;;;5.25;76.43
11605;BME280;5858;43.076;25.626;2023-02-01T08:57:06;99475.13;;;5.39;75.97
11605;BME280;5858;43.076;25.626;2023-02-01T08:59:35;99464.59;;;5.47;75.25
11605;BME280;5858;43.076;25.626;2023-02-01T09:02:02;99468.09;;;5.48;75.54
11605;BME280;5858;43.076;25.626;2023-02-01T09:04:29;99471.72;;;5.47;75.16
11605;BME280;5858;43.076;25.626;2023-02-01T09:06:57;99411.84;;;5.07;75.18
11605;BME280;5858;43.076;25.626;2023-02-01T09:09:27;99369.28;;;4.81;74.81
11605;BME280;5858;43.076;25.626;2023-02-01T09:11:57;99429.28;;;5.10;74.71
11605;BME280;5858;43.076;25.626;2023-02-01T09:14:24;99408.75;;;5.21;74.21
11605;BME280;5858;43.076;25.626;2023-02-01T09:16:52;99432.97;;;5.36;73.98
11605;BME280;5858;43.076;25.626;2023-02-01T09:19:20;99409.13;;;5.26;73.00
11605;BME280;5858;43.076;25.626;2023-02-01T09:21:48;99304.31;;;4.67;74.28
11605;BME280;5858;43.076;25.626;2023-02-01T09:24:18;99481.09;;;5.78;73.53
11605;BME280;5858;43.076;25.626;2023-02-01T09:26:45;99347.59;;;4.95;73.74
11605;BME280;5858;43.076;25.626;2023-02-01T09:29:15;99366.38;;;5.02;72.96
11605;BME280;5858;43.076;25.626;2023-02-01T09:31:44;99456.69;;;5.65;73.64
11605;BME280;5858;43.076;25.626;2023-02-01T09:34:12;99424.03;;;5.37;73.04
11605;BME280;5858;43.076;25.626;2023-02-01T09:36:39;99465.34;;;5.67;72.90
11605;BME280;5858;43.076;25.626;2023-02-01T09:39:07;99298.59;;;4.62;72.68
11605;BME280;5858;43.076;25.626;2023-02-01T09:41:44;99428.47;;;5.64;73.56
11605;BME280;5858;43.076;25.626;2023-02-01T09:44:27;99416.53;;;5.78;72.48
11605;BME280;5858;43.076;25.626;2023-02-01T09:46:58;99356.03;;;5.54;72.36
11605;BME280;5858;43.076;25.626;2023-02-01T09:49:28;99442.06;;;6.24;72.10
11605;BME280;5858;43.076;25.626;2023-02-01T09:51:56;99429.22;;;6.37;72.54
11605;BME280;5858;43.076;25.626;2023-02-01T09:54:26;99382.28;;;6.20;71.18
11605;BME280;5858;43.076;25.626;2023-02-01T09:57:00;99253.38;;;5.54;70.09
11605;BME280;5858;43.076;25.626;2023-02-01T09:59:37;99452.91;;;6.66;68.94
11605;BME280;5858;43.076;25.626;2023-02-01T10:02:17;99225.47;;;5.50;67.97
11605;BME280;5858;43.076;25.626;2023-02-01T10:04:48;99393.25;;;6.25;68.76
11605;BME280;5858;43.076;25.626;2023-02-01T10:07:26;99413.97;;;6.39;70.14
11605;BME280;5858;43.076;25.626;2023-02-01T10:10:11;99401.72;;;6.46;69.91
11605;BME280;5858;43.076;25.626;2023-02-01T10:19:27;99286.53;;;6.12;68.53
11605;BME280;5858;43.076;25.626;2023-02-01T10:22:17;99382.78;;;7.01;67.71
11605;BME280;5858;43.076;25.626;2023-02-01T10:24:56;99378.56;;;7.16;66.63
11605;BME280;5858;43.076;25.626;2023-02-01T10:27:35;99340.84;;;6.87;64.86
11605;BME280;5858;43.076;25.626;2023-02-01T10:30:17;99244.91;;;6.46;65.20
11605;BME280;5858;43.076;25.626;2023-02-01T10:32:47;99272.47;;;6.71;64.62
11605;BME280;5858;43.076;25.626;2023-02-01T10:35:28;99376.13;;;7.31;63.63
11605;BME280;5858;43.076;25.626;2023-02-01T10:38:32;99165.47;;;6.01;63.74
11605;BME280;5858;43.076;25.626;2023-02-01T10:41:30;99165.75;;;6.24;64.14
11605;BME280;5858;43.076;25.626;2023-02-01T10:44:04;99277.25;;;7.10;64.43
11605;BME280;5858;43.076;25.626;2023-02-01T10:46:46;99223.66;;;6.97;63.70
11605;BME280;5858;43.076;25.626;2023-02-01T10:49:37;99269.81;;;7.21;62.74
11605;BME280;5858;43.076;25.626;2023-02-01T10:52:15;99181.66;;;6.58;62.54
11605;BME280;5858;43.076;25.626;2023-02-01T10:54:55;99329.63;;;7.68;62.40
11605;BME280;5858;43.076;25.626;2023-02-01T10:57:36;99272.81;;;7.43;61.14
11605;BME280;5858;43.076;25.626;2023-02-01T11:00:33;99170.34;;;6.56;61.00
11605;BME280;5858;43.076;25.626;2023-02-01T11:06:39;99127.78;;;6.40;60.30
11605;BME280;5858;43.076;25.626;2023-02-01T11:09:18;99301.50;;;7.65;60.84
11605;BME280;5858;43.076;25.626;2023-02-01T11:12:00;99226.06;;;7.24;62.04
11605;BME280;5858;43.076;25.626;2023-02-01T11:14:57;99199.63;;;7.14;62.17
11605;BME280;5858;43.076;25.626;2023-02-01T11:17:40;99314.97;;;7.88;60.27
11605;BME280;5858;43.076;25.626;2023-02-01T11:20:14;99295.66;;;7.86;60.76
11605;BME280;5858;43.076;25.626;2023-02-01T11:22:46;99287.16;;;7.99;61.29
11605;BME280;5858;43.076;25.626;2023-02-01T11:25:16;99286.19;;;7.92;61.25
11605;BME280;5858;43.076;25.626;2023-02-01T11:27:56;99100.66;;;6.94;61.31
11605;BME280;5858;43.076;25.626;2023-02-01T11:30:32;99230.91;;;7.53;60.60
11605;BME280;5858;43.076;25.626;2023-02-01T11:33:28;99214.97;;;7.61;59.51
11605;BME280;5858;43.076;25.626;2023-02-01T11:36:19;99292.81;;;8.28;60.89
11605;BME280;5858;43.076;25.626;2023-02-01T11:38:52;99179.66;;;7.67;59.77
11605;BME280;5858;43.076;25.626;2023-02-01T11:41:27;99183.13;;;7.84;58.57
11605;BME280;5858;43.076;25.626;2023-02-01T11:44:10;99286.31;;;8.39;57.57
11605;BME280;5858;43.076;25.626;2023-02-01T11:47:08;99205.22;;;8.17;58.17
11605;BME280;5858;43.076;25.626;2023-02-01T11:49:46;99266.81;;;8.46;57.20
11605;BME280;5858;43.076;25.626;2023-02-01T11:55:38;99253.66;;;8.53;57.60
11605;BME280;5858;43.076;25.626;2023-02-01T11:58:22;99218.16;;;8.52;56.49
11605;BME280;5858;43.076;25.626;2023-02-01T12:01:06;99189.03;;;8.35;54.33
11605;BME280;5858;43.076;25.626;2023-02-01T12:17:05;99097.13;;;7.59;52.78
11605;BME280;5858;43.076;25.626;2023-02-01T12:19:53;99090.13;;;7.66;54.06
11605;BME280;5858;43.076;25.626;2023-02-01T12:22:33;99160.94;;;8.00;53.67
11605;BME280;5858;43.076;25.626;2023-02-01T12:25:25;99229.44;;;8.63;53.52
11605;BME280;5858;43.076;25.626;2023-02-01T12:31:47;99223.28;;;8.62;54.22
11605;BME280;5858;43.076;25.626;2023-02-01T12:34:47;99233.66;;;8.41;54.43
11605;BME280;5858;43.076;25.626;2023-02-01T12:37:23;99187.59;;;8.08;56.07
11605;BME280;5858;43.076;25.626;2023-02-01T12:40:12;99106.44;;;7.55;54.97
11605;BME280;5858;43.076;25.626;2023-02-01T12:42:47;99140.72;;;7.66;55.40
11605;BME280;5858;43.076;25.626;2023-02-01T12:45:20;99138.91;;;7.58;55.25
11605;BME280;5858;43.076;25.626;2023-02-01T12:48:15;99226.56;;;8.01;56.70
11605;BME280;5858;43.076;25.626;2023-02-01T12:50:51;99225.88;;;7.99;56.95
11605;BME280;5858;43.076;25.626;2023-02-01T12:53:26;99136.91;;;7.36;57.35
11605;BME280;5858;43.076;25.626;2023-02-01T12:56:06;99228.38;;;8.00;57.85
11605;BME280;5858;43.076;25.626;2023-02-01T12:58:41;99245.38;;;7.91;57.95
11605;BME280;5858;43.076;25.626;2023-02-01T13:01:14;99232.91;;;7.83;58.83
11605;BME280;5858;43.076;25.626;2023-02-01T13:03:52;99231.06;;;7.84;59.22
11605;BME280;5858;43.076;25.626;2023-02-01T13:06:27;99207.47;;;7.65;59.89
11605;BME280;5858;43.076;25.626;2023-02-01T13:09:01;99097.00;;;7.04;59.85
11605;BME280;5858;43.076;25.626;2023-02-01T13:11:36;99200.16;;;7.58;59.95
11605;BME280;5858;43.076;25.626;2023-02-01T13:14:11;99210.25;;;7.87;59.84
11605;BME280;5858;43.076;25.626;2023-02-01T13:16:43;99219.41;;;7.85;59.86
11605;BME280;5858;43.076;25.626;2023-02-01T13:19:24;99226.22;;;7.96;60.85
11605;BME280;5858;43.076;25.626;2023-02-01T13:21:59;99206.59;;;7.88;59.12
11605;BME280;5858;43.076;25.626;2023-02-01T13:24:37;99125.91;;;7.47;58.42
11605;BME280;5858;43.076;25.626;2023-02-01T13:27:21;99194.78;;;7.91;58.21
11605;BME280;5858;43.076;25.626;2023-02-01T13:29:55;99209.91;;;7.99;59.14
11605;BME280;5858;43.076;25.626;2023-02-01T13:32:53;99254.34;;;8.23;58.56
11605;BME280;5858;43.076;25.626;2023-02-01T13:35:47;99226.03;;;8.21;59.31
11605;BME280;5858;43.076;25.626;2023-02-01T13:42:02;99215.56;;;8.12;57.90
11605;BME280;5858;43.076;25.626;2023-02-01T13:44:33;99233.50;;;8.26;57.58
11605;BME280;5858;43.076;25.626;2023-02-01T13:47:12;99082.53;;;7.31;57.28
11605;BME280;5858;43.076;25.626;2023-02-01T13:49:40;99210.06;;;8.13;57.09
11605;BME280;5858;43.076;25.626;2023-02-01T13:52:25;99221.56;;;8.06;57.46
11605;BME280;5858;43.076;25.626;2023-02-01T13:55:30;99228.88;;;8.20;58.04
11605;BME280;5858;43.076;25.626;2023-02-01T13:58:05;99188.25;;;8.02;58.18
11605;BME280;5858;43.076;25.626;2023-02-01T14:00:34;99202.91;;;8.14;57.55
11605;BME280;5858;43.076;25.626;2023-02-01T14:03:17;99185.63;;;7.77;59.09
11605;BME280;5858;43.076;25.626;2023-02-01T14:09:18;99227.41;;;8.09;58.80
11605;BME280;5858;43.076;25.626;2023-02-01T14:11:49;99179.31;;;7.70;58.56
11605;BME280;5858;43.076;25.626;2023-02-01T14:14:40;99061.56;;;7.03;59.05
11605;BME280;5858;43.076;25.626;2023-02-01T14:17:35;99158.34;;;7.51;59.60
11605;BME280;5858;43.076;25.626;2023-02-01T14:23:20;99135.25;;;7.43;59.96
11605;BME280;5858;43.076;25.626;2023-02-01T14:26:03;99238.88;;;8.02;59.53
11605;BME280;5858;43.076;25.626;2023-02-01T14:28:37;99250.69;;;7.99;59.51